createdAt,value
2023-03-27T07:24:42.848Z,99.90
2023-03-27T07:27:10.719Z,99.90
2023-03-27T07:29:38.625Z,99.90
2023-03-27T07:32:09.435Z,99.90
2023-03-27T07:34:38.397Z,99.90
2023-03-27T07:37:06.228Z,99.90
2023-03-27T07:39:34.011Z,99.90
2023-03-27T07:42:03.167Z,99.90
2023-03-27T07:44:30.984Z,99.90
2023-03-27T07:46:58.817Z,99.90
2023-03-27T07:49:39.537Z,99.90
2023-03-27T07:52:09.102Z,99.90
2023-03-27T07:54:37.084Z,99.90
2023-03-27T07:57:06.992Z,99.90
2023-03-27T07:59:34.838Z,99.90
2023-03-27T08:02:02.741Z,99.90
2023-03-27T08:04:30.617Z,99.90
2023-03-27T08:06:58.585Z,99.90
2023-03-27T08:09:27.135Z,99.90
2023-03-27T08:11:54.941Z,99.90
2023-03-27T08:14:26.201Z,99.90
2023-03-27T08:16:55.894Z,99.90
2023-03-27T08:19:30.146Z,99.90
2023-03-27T08:21:58.513Z,99.90
2023-03-27T08:24:26.681Z,99.90
2023-03-27T08:26:55.032Z,99.90
2023-03-27T08:29:24.166Z,99.90
2023-03-27T08:31:51.931Z,99.90
2023-03-27T08:34:19.960Z,99.90
2023-03-27T08:36:47.731Z,99.90
2023-03-27T08:39:15.598Z,99.90
2023-03-27T08:41:51.539Z,99.90
2023-03-27T08:44:22.119Z,99.90
2023-03-27T08:46:56.044Z,99.90
2023-03-27T08:49:27.127Z,99.90
2023-03-27T08:51:57.797Z,99.90
2023-03-27T08:54:28.279Z,99.90
2023-03-27T08:56:56.198Z,99.90
2023-03-27T08:59:27.557Z,99.90
2023-03-27T09:02:06.687Z,99.90
2023-03-27T09:04:41.120Z,99.90
2023-03-27T09:07:12.609Z,99.90
2023-03-27T09:09:50.557Z,99.90
2023-03-27T09:12:35.755Z,99.90
2023-03-27T09:15:10.594Z,99.90
2023-03-27T09:17:43.130Z,99.90
2023-03-27T09:20:18.231Z,99.90
2023-03-27T09:22:52.570Z,99.90
2023-03-27T09:25:25.201Z,99.90
2023-03-27T09:27:54.024Z,99.90
2023-03-27T09:30:25.757Z,99.90
2023-03-27T09:32:59.124Z,99.90
2023-03-27T09:35:27.371Z,99.90
2023-03-27T09:38:00.041Z,99.90
2023-03-27T09:40:33.732Z,99.90
2023-03-27T09:43:09.249Z,99.90
2023-03-27T09:45:39.115Z,99.90
2023-03-27T09:48:14.854Z,99.90
2023-03-27T09:50:46.901Z,99.90
2023-03-27T09:53:17.351Z,99.90
2023-03-27T09:55:54.912Z,99.90
2023-03-27T09:58:35.340Z,99.90
2023-03-27T10:01:29.019Z,99.90
2023-03-27T10:03:59.882Z,99.90
2023-03-27T10:06:29.476Z,99.90
2023-03-27T10:09:01.009Z,99.90
2023-03-27T10:11:32.503Z,99.90
2023-03-27T10:14:01.892Z,99.90
2023-03-27T10:16:31.015Z,99.90
2023-03-27T10:19:01.678Z,99.90
2023-03-27T10:21:33.259Z,99.90
2023-03-27T10:24:04.299Z,99.90
2023-03-27T10:26:34.355Z,99.90
2023-03-27T10:29:19.325Z,99.90
2023-03-27T10:31:51.254Z,99.90
2023-03-27T10:34:36.507Z,99.90
2023-03-27T10:37:20.238Z,99.90
2023-03-27T10:39:48.626Z,99.90
2023-03-27T10:42:18.476Z,99.90
2023-03-27T10:44:49.196Z,99.90
2023-03-27T10:47:23.204Z,99.90
2023-03-27T10:50:02.245Z,99.90
2023-03-27T10:52:37.724Z,99.90
2023-03-27T10:55:18.655Z,99.90
2023-03-27T10:57:52.520Z,99.00
2023-03-27T11:00:32.548Z,99.00
2023-03-27T11:03:06.020Z,99.10
2023-03-27T11:05:39.598Z,99.00
2023-03-27T11:08:12.892Z,98.90
2023-03-27T11:10:42.594Z,98.50
2023-03-27T11:13:16.003Z,98.60
2023-03-27T11:15:49.133Z,99.20
2023-03-27T11:18:22.666Z,98.80
2023-03-27T11:20:56.683Z,98.10
2023-03-27T11:23:32.113Z,98.30
2023-03-27T11:26:03.464Z,98.00
2023-03-27T11:28:39.693Z,97.30
2023-03-27T11:31:15.898Z,96.60
2023-03-27T11:33:50.129Z,96.00
2023-03-27T11:36:34.775Z,95.90
2023-03-27T11:39:13.568Z,96.00
2023-03-27T11:41:41.607Z,95.80
2023-03-27T11:44:11.252Z,95.50
2023-03-27T11:46:58.219Z,95.30
2023-03-27T11:49:41.467Z,95.30
2023-03-27T11:52:19.499Z,94.80
2023-03-27T11:55:06.581Z,94.10
2023-03-27T11:57:43.683Z,93.50
2023-03-27T12:00:25.440Z,93.50
2023-03-27T12:03:14.741Z,93.10
2023-03-27T12:05:55.210Z,92.70
2023-03-27T12:08:34.809Z,93.60
2023-03-27T12:11:06.292Z,93.80
2023-03-27T12:14:11.280Z,93.20
2023-03-27T12:17:02.827Z,93.50
2023-03-27T12:19:46.139Z,93.20
2023-03-27T12:22:23.890Z,93.20
2023-03-27T12:25:18.615Z,93.30
2023-03-27T12:27:59.686Z,93.80
2023-03-27T12:30:39.557Z,93.60
2023-03-27T12:33:35.809Z,93.90
2023-03-27T12:36:07.239Z,95.60
2023-03-27T12:38:38.719Z,94.50
2023-03-27T12:41:20.410Z,95.30
2023-03-27T12:43:49.667Z,95.60
2023-03-27T12:46:32.028Z,93.30
2023-03-27T12:49:05.214Z,93.20
2023-03-27T12:51:44.193Z,93.30
2023-03-27T12:54:24.146Z,92.20
2023-03-27T12:56:59.769Z,91.10
2023-03-27T12:59:29.851Z,91.00
2023-03-27T13:02:55.151Z,90.30
2023-03-27T13:05:46.702Z,90.10
2023-03-27T13:08:35.619Z,89.60
2023-03-27T13:11:15.294Z,90.00
2023-03-27T13:14:40.209Z,89.80
2023-03-27T13:17:25.748Z,89.10
2023-03-27T13:20:08.469Z,89.40
2023-03-27T13:22:49.659Z,89.40
2023-03-27T13:25:31.480Z,89.50
2023-03-27T13:28:21.491Z,89.00
2023-03-27T13:30:50.636Z,89.50
2023-03-27T13:33:28.072Z,90.40
2023-03-27T13:36:12.210Z,90.90
2023-03-27T13:39:04.503Z,91.00
2023-03-27T13:41:58.884Z,91.70
2023-03-27T13:44:40.194Z,92.00
2023-03-27T13:47:22.062Z,91.60
2023-03-27T13:50:16.641Z,92.50
2023-03-27T13:53:23.657Z,87.80
2023-03-27T13:56:05.016Z,83.60
2023-03-27T13:59:02.964Z,83.90
2023-03-27T14:01:48.385Z,84.00
2023-03-27T14:04:39.562Z,84.30
2023-03-27T14:07:55.787Z,85.00
2023-03-27T14:10:39.253Z,80.90
2023-03-27T14:13:24.078Z,81.40
2023-03-27T14:16:18.989Z,78.50
2023-03-27T14:19:26.582Z,73.20
2023-03-27T14:22:00.055Z,71.30
2023-03-27T14:24:37.676Z,73.50
2023-03-27T14:27:07.531Z,75.20
2023-03-27T14:29:35.773Z,76.40
2023-03-27T14:32:04.825Z,77.40
2023-03-27T14:34:47.163Z,78.60
2023-03-27T14:37:29.625Z,79.60
2023-03-27T14:40:00.665Z,81.10
2023-03-27T14:42:32.892Z,82.20
2023-03-27T14:45:20.392Z,81.70
2023-03-27T14:47:50.716Z,82.10
2023-03-27T14:50:19.753Z,83.00
2023-03-27T14:52:52.622Z,84.20
2023-03-27T14:55:24.456Z,84.20
2023-03-27T14:57:54.545Z,86.10
2023-03-27T15:00:24.912Z,89.80
2023-03-27T15:02:57.114Z,83.40
2023-03-27T15:05:24.899Z,71.80
2023-03-27T15:07:52.835Z,66.00
2023-03-27T15:10:24.632Z,64.00
2023-03-27T15:12:52.638Z,59.60
2023-03-27T15:15:26.346Z,59.50
2023-03-27T15:17:55.858Z,57.10
2023-03-27T15:20:27.623Z,57.00
2023-03-27T15:23:00.003Z,56.10
2023-03-27T15:25:36.661Z,57.50
2023-03-27T15:28:10.828Z,58.00
2023-03-27T15:30:43.536Z,58.20
2023-03-27T15:33:17.267Z,59.20
2023-03-27T15:35:48.406Z,59.30
2023-03-27T15:38:17.822Z,60.50
2023-03-27T15:40:47.754Z,64.00
2023-03-27T15:43:23.394Z,66.70
2023-03-27T15:46:13.658Z,68.20
2023-03-27T15:48:44.989Z,67.40
2023-03-27T15:51:27.947Z,68.60
2023-03-27T15:53:56.699Z,69.80
2023-03-27T15:56:29.082Z,70.30
2023-03-27T15:59:01.086Z,71.70
2023-03-27T16:01:32.665Z,73.30
2023-03-27T16:04:05.248Z,74.30
2023-03-27T16:06:37.616Z,77.30
2023-03-27T16:09:10.061Z,78.20
2023-03-27T16:11:45.775Z,80.00
2023-03-27T16:14:28.826Z,81.60
2023-03-27T19:57:59.449Z,97.50
2023-03-27T20:00:28.106Z,97.60
2023-03-27T20:02:57.873Z,97.50
2023-03-27T20:05:25.883Z,97.40
2023-03-27T20:07:53.671Z,97.50
2023-03-27T20:10:22.120Z,97.40
2023-03-27T20:12:49.976Z,97.40
2023-03-27T20:15:19.160Z,97.50
2023-03-27T20:17:47.001Z,97.40
2023-03-27T20:20:14.841Z,97.20
2023-03-27T20:22:56.930Z,97.10
2023-03-27T20:25:28.004Z,97.00
2023-03-27T20:27:55.936Z,96.80
2023-03-27T20:30:25.570Z,96.50
2023-03-27T20:32:53.575Z,96.40
2023-03-27T20:35:24.694Z,96.20
2023-03-27T20:37:57.516Z,96.10
2023-03-27T20:40:26.164Z,96.10
2023-03-27T20:43:02.872Z,96.30
2023-03-27T20:45:32.255Z,96.30
2023-03-27T20:48:03.918Z,96.20
2023-03-27T20:50:35.781Z,96.30
2023-03-27T20:53:04.550Z,96.20
